sensor_id;sensor_type;location;lat;lon;timestamp;temperature;humidity
12115;DHT22;6121;49.810;6.418;2023-08-08T00:00:09;13.10;99.90
12115;DHT22;6121;49.810;6.418;2023-08-08T00:02:35;13.10;99.90
12115;DHT22;6121;49.810;6.418;2023-08-08T00:05:01;13.00;99.90
12115;DHT22;6121;49.810;6.418;2023-08-08T00:07:27;13.00;99.90
12115;DHT22;6121;49.810;6.418;2023-08-08T00:09:56;12.90;99.90
12115;DHT22;6121;49.810;6.418;2023-08-08T00:12:22;12.90;99.90
12115;DHT22;6121;49.810;6.418;2023-08-08T00:14:49;12.90;99.90
12115;DHT22;6121;49.810;6.418;2023-08-08T00:17:15;12.80;99.90
12115;DHT22;6121;49.810;6.418;2023-08-08T00:19:41;12.70;99.90
12115;DHT22;6121;49.810;6.418;2023-08-08T00:22:06;12.70;99.90
12115;DHT22;6121;49.810;6.418;2023-08-08T00:24:32;12.70;99.90
12115;DHT22;6121;49.810;6.418;2023-08-08T00:26:58;12.70;99.90
12115;DHT22;6121;49.810;6.418;2023-08-08T00:29:24;12.70;99.90
12115;DHT22;6121;49.810;6.418;2023-08-08T00:31:50;12.60;99.90
12115;DHT22;6121;49.810;6.418;2023-08-08T00:34:16;12.40;99.90
12115;DHT22;6121;49.810;6.418;2023-08-08T00:36:41;12.40;99.90
12115;DHT22;6121;49.810;6.418;2023-08-08T00:39:07;12.50;99.90
12115;DHT22;6121;49.810;6.418;2023-08-08T00:41:33;12.40;99.90
12115;DHT22;6121;49.810;6.418;2023-08-08T00:44:00;12.40;99.90
12115;DHT22;6121;49.810;6.418;2023-08-08T00:46:26;12.40;99.90
12115;DHT22;6121;49.810;6.418;2023-08-08T00:48:52;12.40;99.90
12115;DHT22;6121;49.810;6.418;2023-08-08T00:51:18;12.40;99.90
12115;DHT22;6121;49.810;6.418;2023-08-08T00:53:45;12.30;99.90
12115;DHT22;6121;49.810;6.418;2023-08-08T00:56:14;12.30;99.90
12115;DHT22;6121;49.810;6.418;2023-08-08T00:58:41;12.30;99.90
12115;DHT22;6121;49.810;6.418;2023-08-08T01:01:07;12.20;99.90
12115;DHT22;6121;49.810;6.418;2023-08-08T01:03:34;12.10;99.90
12115;DHT22;6121;49.810;6.418;2023-08-08T01:06:16;12.10;99.90
12115;DHT22;6121;49.810;6.418;2023-08-08T01:08:54;12.10;99.90
12115;DHT22;6121;49.810;6.418;2023-08-08T01:11:21;12.00;99.90
12115;DHT22;6121;49.810;6.418;2023-08-08T01:13:47;11.90;99.90
12115;DHT22;6121;49.810;6.418;2023-08-08T01:16:14;12.00;99.90
12115;DHT22;6121;49.810;6.418;2023-08-08T01:18:41;11.90;99.90
12115;DHT22;6121;49.810;6.418;2023-08-08T01:21:08;11.90;99.90
12115;DHT22;6121;49.810;6.418;2023-08-08T01:24:10;11.90;99.90
12115;DHT22;6121;49.810;6.418;2023-08-08T01:26:36;11.80;99.90
12115;DHT22;6121;49.810;6.418;2023-08-08T01:29:02;11.80;99.90
12115;DHT22;6121;49.810;6.418;2023-08-08T01:31:28;11.80;99.90
12115;DHT22;6121;49.810;6.418;2023-08-08T01:33:54;11.60;99.90
12115;DHT22;6121;49.810;6.418;2023-08-08T01:36:28;11.70;99.90
12115;DHT22;6121;49.810;6.418;2023-08-08T01:38:59;11.60;99.90
12115;DHT22;6121;49.810;6.418;2023-08-08T01:41:32;11.60;99.90
12115;DHT22;6121;49.810;6.418;2023-08-08T01:43:58;11.60;99.90
12115;DHT22;6121;49.810;6.418;2023-08-08T01:46:25;11.60;99.90
12115;DHT22;6121;49.810;6.418;2023-08-08T01:48:53;11.60;99.90
12115;DHT22;6121;49.810;6.418;2023-08-08T01:51:20;11.60;99.90
12115;DHT22;6121;49.810;6.418;2023-08-08T01:53:47;11.50;99.90
12115;DHT22;6121;49.810;6.418;2023-08-08T01:56:13;11.50;99.90
12115;DHT22;6121;49.810;6.418;2023-08-08T01:58:39;11.50;99.90
12115;DHT22;6121;49.810;6.418;2023-08-08T02:01:05;11.50;99.90
12115;DHT22;6121;49.810;6.418;2023-08-08T02:03:31;11.50;99.90
12115;DHT22;6121;49.810;6.418;2023-08-08T02:05:57;11.40;99.90
12115;DHT22;6121;49.810;6.418;2023-08-08T02:08:23;11.40;99.90
12115;DHT22;6121;49.810;6.418;2023-08-08T02:10:49;11.40;99.90
12115;DHT22;6121;49.810;6.418;2023-08-08T02:13:14;11.30;99.90
12115;DHT22;6121;49.810;6.418;2023-08-08T02:15:40;11.20;99.90
12115;DHT22;6121;49.810;6.418;2023-08-08T02:18:06;11.20;99.90
12115;DHT22;6121;49.810;6.418;2023-08-08T02:20:34;11.20;99.90
12115;DHT22;6121;49.810;6.418;2023-08-08T02:23:00;11.10;99.90
12115;DHT22;6121;49.810;6.418;2023-08-08T02:25:26;11.10;99.90
12115;DHT22;6121;49.810;6.418;2023-08-08T02:27:52;11.10;99.90
12115;DHT22;6121;49.810;6.418;2023-08-08T02:30:17;11.10;99.90
12115;DHT22;6121;49.810;6.418;2023-08-08T02:32:43;11.00;99.90
12115;DHT22;6121;49.810;6.418;2023-08-08T02:35:09;10.80;99.90
12115;DHT22;6121;49.810;6.418;2023-08-08T02:37:35;11.00;99.90
12115;DHT22;6121;49.810;6.418;2023-08-08T02:40:01;11.00;99.90
12115;DHT22;6121;49.810;6.418;2023-08-08T02:42:27;11.00;99.90
12115;DHT22;6121;49.810;6.418;2023-08-08T02:44:53;10.90;99.90
12115;DHT22;6121;49.810;6.418;2023-08-08T02:47:19;10.90;99.90
12115;DHT22;6121;49.810;6.418;2023-08-08T02:49:45;10.90;99.90
12115;DHT22;6121;49.810;6.418;2023-08-08T02:52:11;10.90;99.90
12115;DHT22;6121;49.810;6.418;2023-08-08T02:54:37;10.80;99.90
12115;DHT22;6121;49.810;6.418;2023-08-08T02:57:03;10.70;99.90
12115;DHT22;6121;49.810;6.418;2023-08-08T02:59:32;10.70;99.90
12115;DHT22;6121;49.810;6.418;2023-08-08T03:02:01;10.70;99.90
12115;DHT22;6121;49.810;6.418;2023-08-08T03:04:27;10.30;99.90
12115;DHT22;6121;49.810;6.418;2023-08-08T03:06:52;10.70;99.90
12115;DHT22;6121;49.810;6.418;2023-08-08T03:09:19;10.60;99.90
12115;DHT22;6121;49.810;6.418;2023-08-08T03:11:46;10.60;99.90
12115;DHT22;6121;49.810;6.418;2023-08-08T03:14:15;10.60;99.90
12115;DHT22;6121;49.810;6.418;2023-08-08T03:16:41;10.60;99.90
12115;DHT22;6121;49.810;6.418;2023-08-08T03:19:08;10.50;99.90
12115;DHT22;6121;49.810;6.418;2023-08-08T03:21:34;10.50;99.90
12115;DHT22;6121;49.810;6.418;2023-08-08T03:24:01;10.40;99.90
12115;DHT22;6121;49.810;6.418;2023-08-08T03:26:28;10.40;99.90
12115;DHT22;6121;49.810;6.418;2023-08-08T03:28:53;10.40;99.90
12115;DHT22;6121;49.810;6.418;2023-08-08T03:31:26;10.40;99.90
12115;DHT22;6121;49.810;6.418;2023-08-08T03:33:53;10.30;99.90
12115;DHT22;6121;49.810;6.418;2023-08-08T03:36:19;10.40;99.90
12115;DHT22;6121;49.810;6.418;2023-08-08T03:38:46;10.40;99.90
12115;DHT22;6121;49.810;6.418;2023-08-08T03:41:12;10.40;99.90
12115;DHT22;6121;49.810;6.418;2023-08-08T03:43:39;10.40;99.90
12115;DHT22;6121;49.810;6.418;2023-08-08T03:46:05;10.40;99.90
12115;DHT22;6121;49.810;6.418;2023-08-08T03:48:32;10.40;99.90
12115;DHT22;6121;49.810;6.418;2023-08-08T03:50:58;10.40;99.90
12115;DHT22;6121;49.810;6.418;2023-08-08T03:53:24;10.40;99.90
12115;DHT22;6121;49.810;6.418;2023-08-08T03:55:49;10.30;99.90
12115;DHT22;6121;49.810;6.418;2023-08-08T03:58:16;10.30;99.90
12115;DHT22;6121;49.810;6.418;2023-08-08T04:00:43;10.30;99.90
12115;DHT22;6121;49.810;6.418;2023-08-08T04:03:16;10.30;99.90
12115;DHT22;6121;49.810;6.418;2023-08-08T04:05:46;10.20;99.90
12115;DHT22;6121;49.810;6.418;2023-08-08T04:08:13;10.20;99.90
12115;DHT22;6121;49.810;6.418;2023-08-08T04:10:40;10.20;99.90
12115;DHT22;6121;49.810;6.418;2023-08-08T04:13:06;10.20;99.90
12115;DHT22;6121;49.810;6.418;2023-08-08T04:15:31;10.20;99.90
12115;DHT22;6121;49.810;6.418;2023-08-08T04:17:57;10.10;99.90
12115;DHT22;6121;49.810;6.418;2023-08-08T04:20:23;10.10;99.90
12115;DHT22;6121;49.810;6.418;2023-08-08T04:22:49;10.10;99.90
12115;DHT22;6121;49.810;6.418;2023-08-08T04:25:15;10.10;99.90
12115;DHT22;6121;49.810;6.418;2023-08-08T04:27:41;10.10;99.90
12115;DHT22;6121;49.810;6.418;2023-08-08T04:30:07;10.10;99.90
12115;DHT22;6121;49.810;6.418;2023-08-08T04:32:33;10.10;99.90
12115;DHT22;6121;49.810;6.418;2023-08-08T04:34:59;10.10;99.90
12115;DHT22;6121;49.810;6.418;2023-08-08T04:37:25;10.10;99.90
12115;DHT22;6121;49.810;6.418;2023-08-08T04:39:50;10.00;99.90
12115;DHT22;6121;49.810;6.418;2023-08-08T04:42:16;10.00;99.90
12115;DHT22;6121;49.810;6.418;2023-08-08T04:44:42;10.00;99.90
12115;DHT22;6121;49.810;6.418;2023-08-08T04:47:08;10.00;99.90
12115;DHT22;6121;49.810;6.418;2023-08-08T04:49:33;10.00;99.90
12115;DHT22;6121;49.810;6.418;2023-08-08T04:51:59;9.90;99.90
12115;DHT22;6121;49.810;6.418;2023-08-08T04:54:25;10.00;99.90
12115;DHT22;6121;49.810;6.418;2023-08-08T04:56:51;10.00;99.90
12115;DHT22;6121;49.810;6.418;2023-08-08T04:59:16;9.90;99.90
12115;DHT22;6121;49.810;6.418;2023-08-08T05:01:42;10.10;99.90
12115;DHT22;6121;49.810;6.418;2023-08-08T05:04:08;10.10;99.90
12115;DHT22;6121;49.810;6.418;2023-08-08T05:06:34;10.20;99.90
12115;DHT22;6121;49.810;6.418;2023-08-08T05:09:00;10.10;99.90
12115;DHT22;6121;49.810;6.418;2023-08-08T05:11:26;10.20;99.90
12115;DHT22;6121;49.810;6.418;2023-08-08T05:13:52;10.30;99.90
12115;DHT22;6121;49.810;6.418;2023-08-08T05:16:18;10.20;99.90
12115;DHT22;6121;49.810;6.418;2023-08-08T05:18:44;10.30;99.90
12115;DHT22;6121;49.810;6.418;2023-08-08T05:21:10;10.30;99.90
12115;DHT22;6121;49.810;6.418;2023-08-08T05:23:36;10.30;99.90
12115;DHT22;6121;49.810;6.418;2023-08-08T05:26:02;10.40;99.90
12115;DHT22;6121;49.810;6.418;2023-08-08T05:28:29;10.50;99.90
12115;DHT22;6121;49.810;6.418;2023-08-08T05:30:55;10.50;99.90
12115;DHT22;6121;49.810;6.418;2023-08-08T05:33:22;10.60;99.90
12115;DHT22;6121;49.810;6.418;2023-08-08T05:35:48;10.50;99.90
12115;DHT22;6121;49.810;6.418;2023-08-08T05:38:14;10.80;99.90
12115;DHT22;6121;49.810;6.418;2023-08-08T05:40:39;10.80;99.90
12115;DHT22;6121;49.810;6.418;2023-08-08T05:43:05;10.90;99.90
12115;DHT22;6121;49.810;6.418;2023-08-08T05:45:31;11.00;99.90
12115;DHT22;6121;49.810;6.418;2023-08-08T05:47:57;11.10;99.90
12115;DHT22;6121;49.810;6.418;2023-08-08T05:50:25;11.20;99.90
12115;DHT22;6121;49.810;6.418;2023-08-08T05:52:51;11.30;99.90
12115;DHT22;6121;49.810;6.418;2023-08-08T05:55:17;11.30;99.90
12115;DHT22;6121;49.810;6.418;2023-08-08T05:57:43;11.50;99.90
12115;DHT22;6121;49.810;6.418;2023-08-08T06:00:09;11.70;99.90
12115;DHT22;6121;49.810;6.418;2023-08-08T06:02:39;11.70;99.90
12115;DHT22;6121;49.810;6.418;2023-08-08T06:05:05;11.80;99.90
12115;DHT22;6121;49.810;6.418;2023-08-08T06:07:31;11.90;99.90
12115;DHT22;6121;49.810;6.418;2023-08-08T06:09:57;12.00;99.90
12115;DHT22;6121;49.810;6.418;2023-08-08T06:12:23;12.10;99.90
12115;DHT22;6121;49.810;6.418;2023-08-08T06:14:48;12.20;99.90
12115;DHT22;6121;49.810;6.418;2023-08-08T06:17:14;12.30;99.90
12115;DHT22;6121;49.810;6.418;2023-08-08T06:19:40;12.30;99.90
12115;DHT22;6121;49.810;6.418;2023-08-08T06:22:06;12.40;99.90
12115;DHT22;6121;49.810;6.418;2023-08-08T06:24:32;12.40;99.90
12115;DHT22;6121;49.810;6.418;2023-08-08T06:26:58;12.50;99.90
12115;DHT22;6121;49.810;6.418;2023-08-08T06:29:23;12.40;99.90
12115;DHT22;6121;49.810;6.418;2023-08-08T06:31:49;12.50;99.90
12115;DHT22;6121;49.810;6.418;2023-08-08T06:34:15;12.50;99.90
12115;DHT22;6121;49.810;6.418;2023-08-08T06:36:41;12.50;99.90
12115;DHT22;6121;49.810;6.418;2023-08-08T06:39:07;12.50;99.90
12115;DHT22;6121;49.810;6.418;2023-08-08T06:41:33;12.50;99.90
12115;DHT22;6121;49.810;6.418;2023-08-08T06:43:58;12.60;99.90
12115;DHT22;6121;49.810;6.418;2023-08-08T06:46:24;13.00;99.90
12115;DHT22;6121;49.810;6.418;2023-08-08T06:48:51;12.60;99.90
12115;DHT22;6121;49.810;6.418;2023-08-08T06:51:21;12.80;99.90
12115;DHT22;6121;49.810;6.418;2023-08-08T06:53:47;12.90;99.90
12115;DHT22;6121;49.810;6.418;2023-08-08T06:56:13;13.00;99.90
12115;DHT22;6121;49.810;6.418;2023-08-08T06:58:39;13.10;99.90
12115;DHT22;6121;49.810;6.418;2023-08-08T07:01:04;13.20;99.90
12115;DHT22;6121;49.810;6.418;2023-08-08T07:03:30;13.40;99.90
12115;DHT22;6121;49.810;6.418;2023-08-08T07:05:56;13.50;99.90
12115;DHT22;6121;49.810;6.418;2023-08-08T07:08:22;13.70;99.90
12115;DHT22;6121;49.810;6.418;2023-08-08T07:10:49;13.70;99.90
12115;DHT22;6121;49.810;6.418;2023-08-08T07:13:15;13.80;99.90
12115;DHT22;6121;49.810;6.418;2023-08-08T07:15:41;13.90;99.90
12115;DHT22;6121;49.810;6.418;2023-08-08T07:18:07;14.10;99.90
12115;DHT22;6121;49.810;6.418;2023-08-08T07:20:33;14.20;99.90
12115;DHT22;6121;49.810;6.418;2023-08-08T07:22:59;14.40;99.90
12115;DHT22;6121;49.810;6.418;2023-08-08T07:25:26;14.60;99.90
12115;DHT22;6121;49.810;6.418;2023-08-08T07:27:51;14.70;99.90
12115;DHT22;6121;49.810;6.418;2023-08-08T07:30:17;14.80;99.90
12115;DHT22;6121;49.810;6.418;2023-08-08T07:32:43;14.80;99.90
12115;DHT22;6121;49.810;6.418;2023-08-08T07:35:09;14.90;99.90
12115;DHT22;6121;49.810;6.418;2023-08-08T07:37:36;15.00;99.90
12115;DHT22;6121;49.810;6.418;2023-08-08T07:40:02;15.20;99.90
12115;DHT22;6121;49.810;6.418;2023-08-08T07:42:29;15.30;99.90
12115;DHT22;6121;49.810;6.418;2023-08-08T07:44:55;15.30;99.90
12115;DHT22;6121;49.810;6.418;2023-08-08T07:47:21;15.60;99.90
12115;DHT22;6121;49.810;6.418;2023-08-08T07:49:47;15.90;99.90
12115;DHT22;6121;49.810;6.418;2023-08-08T07:52:12;16.20;99.90
12115;DHT22;6121;49.810;6.418;2023-08-08T07:54:38;16.40;99.90
12115;DHT22;6121;49.810;6.418;2023-08-08T07:57:04;16.50;99.90
12115;DHT22;6121;49.810;6.418;2023-08-08T07:59:30;16.60;99.90
12115;DHT22;6121;49.810;6.418;2023-08-08T08:01:56;16.70;99.90
12115;DHT22;6121;49.810;6.418;2023-08-08T08:04:22;16.90;99.90
12115;DHT22;6121;49.810;6.418;2023-08-08T08:06:47;17.20;99.90
12115;DHT22;6121;49.810;6.418;2023-08-08T08:09:13;17.30;99.90
12115;DHT22;6121;49.810;6.418;2023-08-08T08:11:39;17.50;99.90
12115;DHT22;6121;49.810;6.418;2023-08-08T08:14:05;17.80;99.90
12115;DHT22;6121;49.810;6.418;2023-08-08T08:16:31;18.10;99.90
12115;DHT22;6121;49.810;6.418;2023-08-08T08:18:56;18.30;99.90
12115;DHT22;6121;49.810;6.418;2023-08-08T08:21:22;18.70;99.90
12115;DHT22;6121;49.810;6.418;2023-08-08T08:23:48;19.00;99.90
12115;DHT22;6121;49.810;6.418;2023-08-08T08:26:14;19.10;99.90
12115;DHT22;6121;49.810;6.418;2023-08-08T08:28:40;19.30;99.90
12115;DHT22;6121;49.810;6.418;2023-08-08T08:31:06;19.30;99.90
12115;DHT22;6121;49.810;6.418;2023-08-08T08:33:33;19.40;99.90
12115;DHT22;6121;49.810;6.418;2023-08-08T08:35:59;19.40;99.90
12115;DHT22;6121;49.810;6.418;2023-08-08T08:38:24;19.60;99.90
12115;DHT22;6121;49.810;6.418;2023-08-08T08:40:54;19.90;99.90
12115;DHT22;6121;49.810;6.418;2023-08-08T08:43:21;20.30;99.90
12115;DHT22;6121;49.810;6.418;2023-08-08T08:45:52;20.40;99.90
12115;DHT22;6121;49.810;6.418;2023-08-08T08:48:20;20.40;99.90
12115;DHT22;6121;49.810;6.418;2023-08-08T08:50:50;20.50;99.90
12115;DHT22;6121;49.810;6.418;2023-08-08T08:53:17;20.90;99.90
12115;DHT22;6121;49.810;6.418;2023-08-08T08:55:43;21.00;99.90
12115;DHT22;6121;49.810;6.418;2023-08-08T08:58:10;21.20;99.90
12115;DHT22;6121;49.810;6.418;2023-08-08T09:00:36;21.00;99.90
12115;DHT22;6121;49.810;6.418;2023-08-08T09:03:03;21.20;99.90
12115;DHT22;6121;49.810;6.418;2023-08-08T09:05:30;21.50;99.90
12115;DHT22;6121;49.810;6.418;2023-08-08T09:07:57;21.50;99.90
12115;DHT22;6121;49.810;6.418;2023-08-08T09:10:24;21.30;99.90
12115;DHT22;6121;49.810;6.418;2023-08-08T09:12:50;21.20;99.90
12115;DHT22;6121;49.810;6.418;2023-08-08T09:15:16;21.40;99.90
12115;DHT22;6121;49.810;6.418;2023-08-08T09:17:44;21.80;99.90
12115;DHT22;6121;49.810;6.418;2023-08-08T09:20:13;22.20;99.90
12115;DHT22;6121;49.810;6.418;2023-08-08T09:22:39;22.80;99.90
12115;DHT22;6121;49.810;6.418;2023-08-08T09:25:06;23.20;99.90
12115;DHT22;6121;49.810;6.418;2023-08-08T09:27:32;22.70;99.90
12115;DHT22;6121;49.810;6.418;2023-08-08T09:29:58;22.70;99.90
12115;DHT22;6121;49.810;6.418;2023-08-08T09:32:29;22.20;99.90
12115;DHT22;6121;49.810;6.418;2023-08-08T09:34:56;22.30;99.90
12115;DHT22;6121;49.810;6.418;2023-08-08T09:37:22;22.40;99.90
12115;DHT22;6121;49.810;6.418;2023-08-08T09:40:03;22.90;99.90
12115;DHT22;6121;49.810;6.418;2023-08-08T09:42:31;23.20;99.50
12115;DHT22;6121;49.810;6.418;2023-08-08T09:44:57;23.30;99.20
12115;DHT22;6121;49.810;6.418;2023-08-08T09:47:24;23.20;98.70
12115;DHT22;6121;49.810;6.418;2023-08-08T09:49:50;23.10;98.80
12115;DHT22;6121;49.810;6.418;2023-08-08T09:52:17;23.10;98.50
12115;DHT22;6121;49.810;6.418;2023-08-08T09:54:43;23.20;98.50
12115;DHT22;6121;49.810;6.418;2023-08-08T09:57:09;23.60;97.80
12115;DHT22;6121;49.810;6.418;2023-08-08T09:59:35;23.60;96.90
12115;DHT22;6121;49.810;6.418;2023-08-08T10:02:02;23.40;96.60
12115;DHT22;6121;49.810;6.418;2023-08-08T10:04:28;23.70;96.10
12115;DHT22;6121;49.810;6.418;2023-08-08T10:06:54;24.00;96.00
12115;DHT22;6121;49.810;6.418;2023-08-08T10:09:20;24.40;95.80
12115;DHT22;6121;49.810;6.418;2023-08-08T10:11:47;24.70;95.50
12115;DHT22;6121;49.810;6.418;2023-08-08T10:14:13;25.10;95.00
12115;DHT22;6121;49.810;6.418;2023-08-08T10:16:43;24.70;93.90
12115;DHT22;6121;49.810;6.418;2023-08-08T10:19:10;24.50;94.40
12115;DHT22;6121;49.810;6.418;2023-08-08T10:21:37;24.50;94.50
12115;DHT22;6121;49.810;6.418;2023-08-08T10:24:07;24.20;94.10
12115;DHT22;6121;49.810;6.418;2023-08-08T10:26:50;23.50;94.30
12115;DHT22;6121;49.810;6.418;2023-08-08T10:29:19;23.50;94.30
12115;DHT22;6121;49.810;6.418;2023-08-08T10:31:52;23.70;94.30
12115;DHT22;6121;49.810;6.418;2023-08-08T10:34:20;24.20;93.90
12115;DHT22;6121;49.810;6.418;2023-08-08T10:36:51;24.30;93.50
12115;DHT22;6121;49.810;6.418;2023-08-08T10:39:20;24.20;93.50
12115;DHT22;6121;49.810;6.418;2023-08-08T10:41:48;23.70;92.60
12115;DHT22;6121;49.810;6.418;2023-08-08T10:44:21;23.60;93.10
12115;DHT22;6121;49.810;6.418;2023-08-08T10:46:49;23.60;93.20
12115;DHT22;6121;49.810;6.418;2023-08-08T10:49:17;23.90;92.80
12115;DHT22;6121;49.810;6.418;2023-08-08T10:51:44;24.10;92.60
12115;DHT22;6121;49.810;6.418;2023-08-08T10:54:17;24.00;92.60
12115;DHT22;6121;49.810;6.418;2023-08-08T10:56:51;24.50;92.60
12115;DHT22;6121;49.810;6.418;2023-08-08T10:59:22;24.90;92.10
12115;DHT22;6121;49.810;6.418;2023-08-08T11:01:50;25.10;91.40
12115;DHT22;6121;49.810;6.418;2023-08-08T11:04:20;24.90;91.60
12115;DHT22;6121;49.810;6.418;2023-08-08T11:06:47;25.60;91.70
12115;DHT22;6121;49.810;6.418;2023-08-08T11:09:16;26.00;91.00
12115;DHT22;6121;49.810;6.418;2023-08-08T11:11:44;26.00;91.20
12115;DHT22;6121;49.810;6.418;2023-08-08T11:14:15;25.70;91.10
12115;DHT22;6121;49.810;6.418;2023-08-08T11:16:41;25.20;91.00
12115;DHT22;6121;49.810;6.418;2023-08-08T11:19:08;25.00;91.80
12115;DHT22;6121;49.810;6.418;2023-08-08T11:21:35;25.30;91.10
12115;DHT22;6121;49.810;6.418;2023-08-08T11:24:03;25.60;91.00
12115;DHT22;6121;49.810;6.418;2023-08-08T11:26:29;25.70;90.80
12115;DHT22;6121;49.810;6.418;2023-08-08T11:29:02;25.30;91.40
12115;DHT22;6121;49.810;6.418;2023-08-08T11:31:28;24.50;91.70
12115;DHT22;6121;49.810;6.418;2023-08-08T11:33:55;24.50;91.70
12115;DHT22;6121;49.810;6.418;2023-08-08T11:36:22;24.00;91.90
12115;DHT22;6121;49.810;6.418;2023-08-08T11:38:52;23.40;92.60
12115;DHT22;6121;49.810;6.418;2023-08-08T11:41:23;23.40;92.80
12115;DHT22;6121;49.810;6.418;2023-08-08T11:43:53;22.90;93.30
12115;DHT22;6121;49.810;6.418;2023-08-08T11:46:23;22.90;93.80
12115;DHT22;6121;49.810;6.418;2023-08-08T11:48:50;22.90;93.90
12115;DHT22;6121;49.810;6.418;2023-08-08T11:51:16;22.90;94.10
12115;DHT22;6121;49.810;6.418;2023-08-08T11:53:49;22.70;94.10
12115;DHT22;6121;49.810;6.418;2023-08-08T11:56:17;22.50;94.50
12115;DHT22;6121;49.810;6.418;2023-08-08T11:58:43;22.50;94.60
12115;DHT22;6121;49.810;6.418;2023-08-08T12:01:09;22.30;94.70
12115;DHT22;6121;49.810;6.418;2023-08-08T12:03:36;22.20;95.00
12115;DHT22;6121;49.810;6.418;2023-08-08T12:06:12;22.20;95.30
12115;DHT22;6121;49.810;6.418;2023-08-08T12:08:40;22.00;95.80
12115;DHT22;6121;49.810;6.418;2023-08-08T12:11:08;21.90;96.00
12115;DHT22;6121;49.810;6.418;2023-08-08T12:13:37;21.50;97.30
12115;DHT22;6121;49.810;6.418;2023-08-08T12:16:06;21.20;98.70
12115;DHT22;6121;49.810;6.418;2023-08-08T12:18:33;21.20;98.80
12115;DHT22;6121;49.810;6.418;2023-08-08T12:21:00;21.10;99.00
12115;DHT22;6121;49.810;6.418;2023-08-08T12:23:27;21.10;99.20
12115;DHT22;6121;49.810;6.418;2023-08-08T12:25:53;21.00;99.10
12115;DHT22;6121;49.810;6.418;2023-08-08T12:28:19;20.80;98.90
12115;DHT22;6121;49.810;6.418;2023-08-08T12:30:45;20.60;99.20
12115;DHT22;6121;49.810;6.418;2023-08-08T12:33:11;20.60;99.50
12115;DHT22;6121;49.810;6.418;2023-08-08T12:35:37;20.50;99.60
12115;DHT22;6121;49.810;6.418;2023-08-08T12:38:02;20.80;99.60
12115;DHT22;6121;49.810;6.418;2023-08-08T12:40:29;21.20;99.60
12115;DHT22;6121;49.810;6.418;2023-08-08T12:42:55;21.70;99.40
12115;DHT22;6121;49.810;6.418;2023-08-08T12:45:21;21.70;98.60
12115;DHT22;6121;49.810;6.418;2023-08-08T12:47:47;21.80;98.90
12115;DHT22;6121;49.810;6.418;2023-08-08T12:50:13;21.80;99.10
12115;DHT22;6121;49.810;6.418;2023-08-08T12:52:40;21.90;98.90
12115;DHT22;6121;49.810;6.418;2023-08-08T12:55:06;21.80;98.80
12115;DHT22;6121;49.810;6.418;2023-08-08T12:57:33;21.50;98.90
12115;DHT22;6121;49.810;6.418;2023-08-08T12:59:59;21.60;99.10
12115;DHT22;6121;49.810;6.418;2023-08-08T13:02:25;21.50;99.30
12115;DHT22;6121;49.810;6.418;2023-08-08T13:04:51;21.50;99.30
12115;DHT22;6121;49.810;6.418;2023-08-08T13:07:16;21.30;99.20
12115;DHT22;6121;49.810;6.418;2023-08-08T13:09:42;21.20;99.30
12115;DHT22;6121;49.810;6.418;2023-08-08T13:12:08;21.20;99.30
12115;DHT22;6121;49.810;6.418;2023-08-08T13:14:34;21.50;99.40
12115;DHT22;6121;49.810;6.418;2023-08-08T13:17:00;21.50;99.20
12115;DHT22;6121;49.810;6.418;2023-08-08T13:19:26;21.70;99.50
12115;DHT22;6121;49.810;6.418;2023-08-08T13:21:52;21.70;99.30
12115;DHT22;6121;49.810;6.418;2023-08-08T13:24:19;21.50;99.50
12115;DHT22;6121;49.810;6.418;2023-08-08T13:26:49;21.40;99.60
12115;DHT22;6121;49.810;6.418;2023-08-08T13:29:15;21.30;99.90
12115;DHT22;6121;49.810;6.418;2023-08-08T13:31:41;21.40;99.90
12115;DHT22;6121;49.810;6.418;2023-08-08T13:34:07;21.50;99.90
12115;DHT22;6121;49.810;6.418;2023-08-08T13:36:33;21.80;99.90
12115;DHT22;6121;49.810;6.418;2023-08-08T13:38:59;21.80;99.40
12115;DHT22;6121;49.810;6.418;2023-08-08T13:41:25;22.00;99.40
12115;DHT22;6121;49.810;6.418;2023-08-08T13:43:51;22.10;99.30
12115;DHT22;6121;49.810;6.418;2023-08-08T13:46:17;22.10;98.80
12115;DHT22;6121;49.810;6.418;2023-08-08T13:48:43;21.90;98.20
12115;DHT22;6121;49.810;6.418;2023-08-08T13:51:09;21.90;98.40
12115;DHT22;6121;49.810;6.418;2023-08-08T13:53:34;22.00;98.40
12115;DHT22;6121;49.810;6.418;2023-08-08T13:56:00;22.10;98.30
12115;DHT22;6121;49.810;6.418;2023-08-08T13:58:27;21.90;98.10
12115;DHT22;6121;49.810;6.418;2023-08-08T14:00:55;21.90;98.10
12115;DHT22;6121;49.810;6.418;2023-08-08T14:03:21;21.90;98.30
12115;DHT22;6121;49.810;6.418;2023-08-08T14:05:47;22.00;98.40
12115;DHT22;6121;49.810;6.418;2023-08-08T14:08:13;21.90;98.20
12115;DHT22;6121;49.810;6.418;2023-08-08T14:10:39;21.70;98.20
12115;DHT22;6121;49.810;6.418;2023-08-08T14:13:05;21.60;98.30
12115;DHT22;6121;49.810;6.418;2023-08-08T14:15:31;21.60;98.60
12115;DHT22;6121;49.810;6.418;2023-08-08T14:18:06;21.50;98.80
12115;DHT22;6121;49.810;6.418;2023-08-08T14:20:32;21.40;98.60
12115;DHT22;6121;49.810;6.418;2023-08-08T14:22:58;21.50;98.70
12115;DHT22;6121;49.810;6.418;2023-08-08T14:25:24;21.30;98.80
12115;DHT22;6121;49.810;6.418;2023-08-08T14:27:49;21.50;99.00
12115;DHT22;6121;49.810;6.418;2023-08-08T14:30:16;21.50;98.70
12115;DHT22;6121;49.810;6.418;2023-08-08T14:32:42;21.30;98.80
12115;DHT22;6121;49.810;6.418;2023-08-08T14:35:08;21.40;98.80
12115;DHT22;6121;49.810;6.418;2023-08-08T14:37:35;21.50;98.90
12115;DHT22;6121;49.810;6.418;2023-08-08T14:40:01;21.60;98.90
12115;DHT22;6121;49.810;6.418;2023-08-08T14:42:27;21.70;98.90
12115;DHT22;6121;49.810;6.418;2023-08-08T14:44:53;21.80;99.00
12115;DHT22;6121;49.810;6.418;2023-08-08T14:47:18;21.80;98.60
12115;DHT22;6121;49.810;6.418;2023-08-08T14:49:44;21.70;98.60
12115;DHT22;6121;49.810;6.418;2023-08-08T14:52:10;21.30;98.30
12115;DHT22;6121;49.810;6.418;2023-08-08T14:54:36;21.20;98.20
12115;DHT22;6121;49.810;6.418;2023-08-08T14:57:02;21.30;98.20
12115;DHT22;6121;49.810;6.418;2023-08-08T14:59:28;21.30;98.30
12115;DHT22;6121;49.810;6.418;2023-08-08T15:01:54;21.10;98.50
12115;DHT22;6121;49.810;6.418;2023-08-08T15:04:20;21.20;98.50
12115;DHT22;6121;49.810;6.418;2023-08-08T15:06:45;21.10;98.60
12115;DHT22;6121;49.810;6.418;2023-08-08T15:09:12;21.10;98.90
12115;DHT22;6121;49.810;6.418;2023-08-08T15:11:38;21.00;98.60
12115;DHT22;6121;49.810;6.418;2023-08-08T15:14:04;21.00;98.70
12115;DHT22;6121;49.810;6.418;2023-08-08T15:16:30;21.10;98.80
12115;DHT22;6121;49.810;6.418;2023-08-08T15:18:56;21.20;98.90
12115;DHT22;6121;49.810;6.418;2023-08-08T15:21:22;21.30;98.80
12115;DHT22;6121;49.810;6.418;2023-08-08T15:23:48;21.40;98.40
12115;DHT22;6121;49.810;6.418;2023-08-08T15:26:15;21.20;98.40
12115;DHT22;6121;49.810;6.418;2023-08-08T15:28:46;21.20;98.40
12115;DHT22;6121;49.810;6.418;2023-08-08T15:31:12;21.20;97.90
12115;DHT22;6121;49.810;6.418;2023-08-08T15:33:38;21.10;97.70
12115;DHT22;6121;49.810;6.418;2023-08-08T15:36:05;21.10;97.90
12115;DHT22;6121;49.810;6.418;2023-08-08T15:38:31;21.20;98.20
12115;DHT22;6121;49.810;6.418;2023-08-08T15:40:57;21.10;98.20
12115;DHT22;6121;49.810;6.418;2023-08-08T15:43:23;21.00;98.70